Twin Groves, Idaho
Current Conditions -  °F | °C
As of 12:55 AM on Saturday 25 Oct 2014 (Local Time) from KWYS Reporting Station
Clear Clear  
Wind Chill: 32°   Ceiling: Unl
Heat Index: 32°   Visibility: 10mi
Dew Point: 27°   Wind: 3mph
Humidity: 80%   Direction: 250°WSW
Pressure: 30.21"   Gusts: NA
Location:  44.2887°N, 111.507°W
Report Text: KWYS 250655Z AUTO 25003KT 10SM CLR 00/M03 A3021 RMK AO2
Loading
Personal Weather Stations






























Interactive Weather Map
Tropical Storm Tracking
New forecast layout! Learn more

10-Day Weather Forecast

Advertisements
Track Severe Weather on mobile